createdAt,value
2018-04-11T00:00:44.544Z,0.00
2018-04-11T00:01:44.575Z,0.00
2018-04-11T00:02:44.604Z,0.00
2018-04-11T00:03:44.607Z,0.00
2018-04-11T00:04:44.628Z,0.00
2018-04-11T00:05:44.646Z,0.00
2018-04-11T00:06:44.688Z,0.00
2018-04-11T00:07:44.706Z,0.00
2018-04-11T00:08:44.724Z,0.00
2018-04-11T00:09:44.778Z,0.00
2018-04-11T00:10:44.755Z,0.00
2018-04-11T00:11:44.760Z,0.00
2018-04-11T00:12:44.814Z,0.00
2018-04-11T00:13:44.804Z,0.00
2018-04-11T00:14:44.837Z,0.00
2018-04-11T00:15:44.877Z,0.00
2018-04-11T00:16:44.863Z,0.00
2018-04-11T00:17:44.897Z,0.00
2018-04-11T00:18:44.900Z,0.00
2018-04-11T00:19:44.921Z,0.00
2018-04-11T00:20:44.944Z,0.00
2018-04-11T00:21:44.960Z,0.00
2018-04-11T00:22:44.973Z,0.00
2018-04-11T00:23:45.006Z,0.00
2018-04-11T00:24:45.018Z,0.00
2018-04-11T00:25:45.040Z,0.00
2018-04-11T00:26:45.058Z,0.00
2018-04-11T00:27:45.076Z,0.00
2018-04-11T00:28:45.106Z,0.00
2018-04-11T00:29:45.114Z,0.00
2018-04-11T00:30:45.189Z,0.00
2018-04-11T00:31:45.152Z,0.00
2018-04-11T00:32:45.171Z,0.00
2018-04-11T00:33:45.186Z,0.00
2018-04-11T00:34:45.207Z,0.00
2018-04-11T00:35:45.223Z,0.00
2018-04-11T00:36:45.240Z,0.00
2018-04-11T00:37:45.269Z,0.00
2018-04-11T00:38:45.299Z,0.00
2018-04-11T00:39:45.300Z,0.00
2018-04-11T00:40:45.319Z,0.00
2018-04-11T00:41:45.337Z,0.00
2018-04-11T00:42:45.376Z,0.00
2018-04-11T00:43:45.373Z,0.00
2018-04-11T00:44:45.400Z,0.00
2018-04-11T00:45:45.422Z,0.00
2018-04-11T00:46:45.435Z,0.00
2018-04-11T00:47:45.453Z,0.00
2018-04-11T00:48:45.473Z,0.00
2018-04-11T00:49:45.494Z,0.00
2018-04-11T00:50:45.509Z,0.00
2018-04-11T00:51:45.532Z,0.00
2018-04-11T00:52:45.553Z,0.00
2018-04-11T00:53:45.588Z,0.00
2018-04-11T00:54:45.595Z,0.00
2018-04-11T00:55:45.606Z,0.00
2018-04-11T00:56:45.627Z,0.00
2018-04-11T00:57:45.645Z,0.00
2018-04-11T00:58:45.665Z,0.00
2018-04-11T00:59:45.680Z,0.00
2018-04-11T01:00:45.702Z,0.00
2018-04-11T01:01:45.719Z,0.00
2018-04-11T01:02:45.741Z,0.00
2018-04-11T01:03:45.773Z,0.00
2018-04-11T01:04:45.779Z,0.00
2018-04-11T01:05:45.796Z,0.00
2018-04-11T01:06:45.816Z,0.00
2018-04-11T01:07:45.836Z,0.00
2018-04-11T01:08:45.847Z,0.00
2018-04-11T01:09:45.872Z,0.00
2018-04-11T01:10:45.890Z,0.00
2018-04-11T01:11:45.911Z,0.00
2018-04-11T01:12:45.930Z,0.00
2018-04-11T01:13:45.948Z,0.00
2018-04-11T01:14:45.965Z,0.00
2018-04-11T01:15:45.985Z,0.00
2018-04-11T01:16:46.008Z,0.00
2018-04-11T01:17:46.030Z,0.00
2018-04-11T01:18:46.039Z,0.00
2018-04-11T01:19:46.071Z,0.00
2018-04-11T01:20:46.082Z,0.00
2018-04-11T01:21:46.097Z,0.00
2018-04-11T01:22:46.121Z,0.00
2018-04-11T01:23:46.139Z,0.00
2018-04-11T01:24:46.160Z,0.00
2018-04-11T01:25:46.176Z,0.00
2018-04-11T01:26:46.196Z,0.00
2018-04-11T01:27:46.210Z,0.00
2018-04-11T01:28:46.234Z,0.00
2018-04-11T01:29:46.257Z,0.00
2018-04-11T01:30:46.277Z,0.00
2018-04-11T01:31:46.301Z,0.00
2018-04-11T01:32:46.310Z,0.00
2018-04-11T01:33:46.331Z,0.00
2018-04-11T01:34:46.345Z,0.00
2018-04-11T01:35:46.360Z,0.00
2018-04-11T01:36:46.382Z,0.00
2018-04-11T01:37:46.397Z,0.00
2018-04-11T01:38:46.425Z,0.00
2018-04-11T01:39:46.437Z,0.00
2018-04-11T01:40:46.456Z,0.00
2018-04-11T01:41:46.476Z,0.00
2018-04-11T01:42:46.499Z,0.00
2018-04-11T01:43:46.512Z,0.00
2018-04-11T01:44:46.531Z,0.00
2018-04-11T01:45:46.550Z,0.00
2018-04-11T01:46:46.571Z,0.00
2018-04-11T01:47:46.589Z,0.00
2018-04-11T01:48:46.606Z,0.00
2018-04-11T01:49:46.627Z,0.00
2018-04-11T01:50:46.646Z,0.00
2018-04-11T01:51:46.669Z,0.00
2018-04-11T01:52:46.681Z,0.00
2018-04-11T01:53:46.700Z,0.00
2018-04-11T01:54:46.717Z,0.00
2018-04-11T01:55:46.738Z,0.00
2018-04-11T01:56:46.785Z,0.00
2018-04-11T01:57:46.804Z,0.00
2018-04-11T01:58:46.829Z,0.00
2018-04-11T01:59:46.821Z,0.00
2018-04-11T02:00:46.829Z,0.00
2018-04-11T02:01:46.846Z,0.00
2018-04-11T02:02:46.868Z,0.00
2018-04-11T02:03:46.891Z,0.00
2018-04-11T02:04:46.910Z,0.00
2018-04-11T02:05:46.935Z,0.00
2018-04-11T02:06:46.952Z,0.00
2018-04-11T02:07:46.969Z,0.00
2018-04-11T02:08:46.983Z,0.00
2018-04-11T02:09:47.003Z,0.00
2018-04-11T02:10:47.022Z,0.00
2018-04-11T02:11:47.036Z,0.00
2018-04-11T02:12:47.055Z,0.00
2018-04-11T02:13:47.073Z,0.00
2018-04-11T02:14:47.095Z,0.00
2018-04-11T02:15:47.114Z,0.00
2018-04-11T02:16:47.128Z,0.00
2018-04-11T02:17:47.149Z,0.00
2018-04-11T02:18:47.179Z,0.00
2018-04-11T02:19:47.185Z,0.00
2018-04-11T02:20:47.242Z,0.00
2018-04-11T02:21:47.223Z,0.00
2018-04-11T02:22:47.243Z,0.00
2018-04-11T02:23:47.258Z,0.00
2018-04-11T02:24:47.292Z,0.00
2018-04-11T02:25:47.291Z,0.00
2018-04-11T02:26:47.316Z,0.00
2018-04-11T02:27:47.327Z,0.00
2018-04-11T02:28:47.349Z,0.00
2018-04-11T02:29:47.381Z,0.00
2018-04-11T02:30:47.389Z,0.00
2018-04-11T02:31:47.412Z,0.00
2018-04-11T02:32:47.430Z,0.00
2018-04-11T02:33:47.444Z,0.00
2018-04-11T02:34:47.466Z,0.00
2018-04-11T02:35:47.481Z,0.00
2018-04-11T02:36:47.518Z,0.00
2018-04-11T02:37:47.522Z,0.00
2018-04-11T02:38:47.560Z,0.00
2018-04-11T02:39:47.552Z,0.00
2018-04-11T02:40:47.573Z,0.00
2018-04-11T02:41:47.592Z,0.00
2018-04-11T02:42:47.615Z,0.00
2018-04-11T02:43:47.630Z,0.00
2018-04-11T02:44:47.698Z,0.00
2018-04-11T02:45:47.667Z,0.00
2018-04-11T02:46:47.683Z,0.00
2018-04-11T02:47:47.704Z,0.00
2018-04-11T02:48:47.717Z,0.00
2018-04-11T02:49:47.740Z,0.00
2018-04-11T02:50:47.758Z,0.00
2018-04-11T02:51:47.780Z,0.00
2018-04-11T02:52:47.793Z,0.00
2018-04-11T02:53:47.813Z,0.00
2018-04-11T02:54:47.869Z,0.00
2018-04-11T02:55:47.851Z,0.00
2018-04-11T02:56:47.867Z,0.00
2018-04-11T02:57:47.883Z,0.00
2018-04-11T02:58:47.901Z,0.00
2018-04-11T02:59:47.926Z,0.00
2018-04-11T03:00:47.943Z,0.00
2018-04-11T03:01:47.958Z,0.00
2018-04-11T03:02:47.977Z,0.00
2018-04-11T03:03:47.999Z,0.00
2018-04-11T03:04:48.013Z,0.00
2018-04-11T03:05:48.035Z,0.00
2018-04-11T03:06:48.053Z,0.00
2018-04-11T03:07:48.070Z,0.00
2018-04-11T03:08:48.083Z,0.00
2018-04-11T03:09:48.105Z,0.00
2018-04-11T03:10:48.123Z,0.00
2018-04-11T03:11:48.146Z,0.00
2018-04-11T03:12:48.169Z,0.00
2018-04-11T03:13:48.178Z,0.00
2018-04-11T03:14:48.200Z,0.00
2018-04-11T03:15:48.207Z,0.00
2018-04-11T03:16:48.232Z,0.00
2018-04-11T03:17:48.250Z,0.00
2018-04-11T03:18:48.269Z,0.00
2018-04-11T03:19:48.289Z,0.00
2018-04-11T03:20:48.310Z,0.00
2018-04-11T03:21:48.391Z,0.00
2018-04-11T03:22:48.347Z,0.00
2018-04-11T03:23:48.374Z,0.00
2018-04-11T03:24:48.377Z,0.00
2018-04-11T03:25:48.405Z,0.00
2018-04-11T03:26:48.413Z,0.00
2018-04-11T03:27:48.429Z,0.00
2018-04-11T03:28:48.448Z,0.00
2018-04-11T03:29:48.468Z,0.00
2018-04-11T03:30:48.495Z,0.00
2018-04-11T03:31:48.504Z,0.00
2018-04-11T03:32:48.521Z,0.00
2018-04-11T03:33:48.550Z,0.00
2018-04-11T03:34:48.557Z,0.00
2018-04-11T03:35:48.579Z,0.00
2018-04-11T03:36:48.592Z,0.00
2018-04-11T03:37:48.612Z,0.00
2018-04-11T03:38:48.629Z,0.00
2018-04-11T03:39:48.652Z,0.00
2018-04-11T03:40:48.673Z,0.00
2018-04-11T03:41:48.685Z,0.00
2018-04-11T03:42:48.708Z,0.00
2018-04-11T03:43:48.731Z,0.00
2018-04-11T03:44:48.744Z,0.00
2018-04-11T03:45:48.755Z,0.00
2018-04-11T03:46:48.777Z,0.00
2018-04-11T03:47:48.794Z,0.00
2018-04-11T03:48:48.817Z,0.00
2018-04-11T03:49:48.829Z,0.00
2018-04-11T03:50:48.848Z,0.00
2018-04-11T03:51:48.867Z,0.00
2018-04-11T03:52:48.883Z,0.00
2018-04-11T03:53:48.907Z,0.00
2018-04-11T03:54:48.965Z,0.00
2018-04-11T03:55:48.934Z,0.00
2018-04-11T03:56:48.952Z,0.00
2018-04-11T03:57:48.977Z,0.00
2018-04-11T03:58:48.995Z,0.00
2018-04-11T03:59:49.008Z,0.00
2018-04-11T04:00:49.039Z,0.00
2018-04-11T04:01:49.051Z,0.00
2018-04-11T04:02:49.058Z,0.00
2018-04-11T04:03:49.081Z,0.00
2018-04-11T04:04:49.099Z,0.00
2018-04-11T04:05:49.124Z,0.00
2018-04-11T04:06:49.134Z,0.00
2018-04-11T04:07:49.208Z,0.00
2018-04-11T04:08:49.184Z,0.00
2018-04-11T04:09:49.190Z,0.00
2018-04-11T04:10:49.208Z,0.00
2018-04-11T04:11:49.239Z,0.00
2018-04-11T04:12:49.250Z,0.00
2018-04-11T04:13:49.293Z,0.00
2018-04-11T04:14:49.282Z,0.00
2018-04-11T04:15:49.296Z,0.00
2018-04-11T04:16:49.317Z,0.00
2018-04-11T04:17:49.333Z,0.00
2018-04-11T04:18:49.349Z,0.00
2018-04-11T04:19:49.404Z,0.00
2018-04-11T04:20:49.388Z,0.00
2018-04-11T04:21:49.402Z,0.00
2018-04-11T04:22:49.424Z,0.00
2018-04-11T04:23:49.440Z,0.00
2018-04-11T04:24:49.456Z,0.00
2018-04-11T04:25:49.479Z,0.00
2018-04-11T04:26:49.504Z,4.00
2018-04-11T04:27:49.515Z,4.00
2018-04-11T04:28:49.533Z,0.00
2018-04-11T04:29:49.548Z,0.00
2018-04-11T04:30:49.571Z,4.00
2018-04-11T04:31:49.589Z,4.00
2018-04-11T04:32:49.598Z,4.00
2018-04-11T04:33:49.641Z,4.00
2018-04-11T04:34:49.648Z,8.00
2018-04-11T04:35:49.654Z,4.00
2018-04-11T04:36:49.670Z,8.00
2018-04-11T04:37:49.691Z,8.00
2018-04-11T04:38:49.708Z,8.00
2018-04-11T04:39:49.723Z,8.00
2018-04-11T04:40:49.745Z,12.00
2018-04-11T04:41:49.764Z,12.00
2018-04-11T04:42:49.777Z,12.00
2018-04-11T04:43:49.800Z,20.00
2018-04-11T04:44:49.822Z,20.00
2018-04-11T04:45:49.827Z,20.00
2018-04-11T04:46:49.850Z,24.00
2018-04-11T04:47:49.862Z,24.00
2018-04-11T04:48:49.885Z,28.00
2018-04-11T04:49:49.905Z,24.00
2018-04-11T04:50:49.921Z,28.00
2018-04-11T04:51:49.937Z,32.00
2018-04-11T04:52:49.957Z,36.00
2018-04-11T04:53:49.975Z,36.00
2018-04-11T04:54:49.987Z,40.00
2018-04-11T04:55:50.011Z,44.00
2018-04-11T04:56:50.035Z,48.00
2018-04-11T04:57:50.045Z,48.00
2018-04-11T04:58:50.061Z,56.00
2018-04-11T04:59:50.080Z,56.00
2018-04-11T05:00:50.095Z,60.00
2018-04-11T05:01:50.115Z,64.00
2018-04-11T05:02:50.144Z,64.00
2018-04-11T05:03:50.161Z,68.00
2018-04-11T05:04:50.171Z,76.00
2018-04-11T05:05:50.187Z,80.00
2018-04-11T05:06:50.208Z,84.00
2018-04-11T05:07:50.231Z,88.00
2018-04-11T05:08:50.239Z,92.00
2018-04-11T05:09:50.260Z,96.00
2018-04-11T05:10:50.287Z,96.00
2018-04-11T05:11:50.322Z,100.00
2018-04-11T05:12:50.323Z,104.00
2018-04-11T05:13:50.326Z,108.00
2018-04-11T05:14:50.342Z,108.00
2018-04-11T05:15:50.364Z,108.00
2018-04-11T05:16:50.383Z,116.00
2018-04-11T05:17:50.414Z,120.00
2018-04-11T05:18:50.414Z,124.00
2018-04-11T05:19:50.438Z,128.00
2018-04-11T05:20:50.464Z,132.00
2018-04-11T05:21:50.482Z,136.00
2018-04-11T05:22:50.493Z,136.00
2018-04-11T05:23:50.530Z,140.00
2018-04-11T05:24:50.519Z,140.00
2018-04-11T05:25:50.544Z,144.00
2018-04-11T05:26:50.574Z,144.00
2018-04-11T05:27:50.577Z,148.00
2018-04-11T05:28:50.595Z,148.00
2018-04-11T05:29:50.617Z,152.00
2018-04-11T05:30:50.633Z,156.00
2018-04-11T05:31:50.654Z,160.00
2018-04-11T05:32:50.662Z,168.00
2018-04-11T05:33:50.677Z,172.00
2018-04-11T05:34:50.701Z,180.00
2018-04-11T05:35:50.719Z,184.00
2018-04-11T05:36:50.738Z,184.00
2018-04-11T05:37:50.753Z,188.00
2018-04-11T05:38:50.770Z,192.00
2018-04-11T05:39:50.790Z,196.00
2018-04-11T05:40:50.819Z,200.00
2018-04-11T05:41:50.824Z,204.00
2018-04-11T05:42:50.842Z,208.00
2018-04-11T05:43:50.856Z,208.00
2018-04-11T05:44:50.883Z,212.00
2018-04-11T05:45:50.920Z,220.00
2018-04-11T05:46:50.916Z,220.00
2018-04-11T05:47:50.931Z,224.00
2018-04-11T05:48:50.960Z,224.00
2018-04-11T05:49:50.993Z,228.00
2018-04-11T05:50:50.992Z,228.00
2018-04-11T05:51:51.002Z,224.00
2018-04-11T05:52:51.014Z,228.00
2018-04-11T05:53:51.047Z,232.00
2018-04-11T05:54:51.055Z,240.00
2018-04-11T05:55:51.074Z,244.00
2018-04-11T05:56:51.093Z,244.00
2018-04-11T05:57:51.112Z,244.00
2018-04-11T05:58:51.208Z,252.00
2018-04-11T05:59:51.161Z,260.00
2018-04-11T06:00:51.177Z,264.00
2018-04-11T06:01:51.175Z,268.00
2018-04-11T06:02:51.210Z,272.00
2018-04-11T06:03:51.215Z,276.00
2018-04-11T06:04:51.231Z,276.00
2018-04-11T06:05:51.260Z,280.00
2018-04-11T06:06:51.272Z,284.00
2018-04-11T06:07:51.290Z,284.00
2018-04-11T06:08:51.311Z,292.00
2018-04-11T06:09:51.331Z,296.00
2018-04-11T06:10:51.340Z,300.00
2018-04-11T06:11:51.356Z,300.00
2018-04-11T06:12:51.383Z,300.00
2018-04-11T06:13:51.406Z,304.00
2018-04-11T06:14:51.417Z,312.00
2018-04-11T06:15:51.433Z,312.00
2018-04-11T06:16:51.457Z,316.00
2018-04-11T06:17:51.467Z,324.00
2018-04-11T06:18:51.507Z,320.00
2018-04-11T06:19:51.515Z,324.00
2018-04-11T06:20:51.558Z,332.00
2018-04-11T06:21:51.549Z,332.00
2018-04-11T06:22:51.607Z,336.00
2018-04-11T06:23:51.577Z,340.00
2018-04-11T06:24:51.631Z,344.00
2018-04-11T06:25:51.614Z,348.00
2018-04-11T06:26:51.646Z,352.00
2018-04-11T06:27:51.652Z,352.00
2018-04-11T06:28:51.664Z,356.00
2018-04-11T06:29:51.690Z,364.00
2018-04-11T06:30:51.702Z,364.00
2018-04-11T06:31:51.725Z,368.00
2018-04-11T06:32:51.748Z,372.00
2018-04-11T06:33:51.803Z,372.00
2018-04-11T06:34:51.782Z,372.00
2018-04-11T06:35:51.811Z,376.00
2018-04-11T06:36:51.811Z,380.00
2018-04-11T06:37:51.844Z,380.00
2018-04-11T06:38:51.924Z,384.00
2018-04-11T06:39:51.873Z,384.00
2018-04-11T06:40:51.882Z,384.00
2018-04-11T06:41:51.912Z,388.00
2018-04-11T06:42:51.924Z,392.00
2018-04-11T06:43:51.945Z,392.00
2018-04-11T06:44:51.964Z,396.00
2018-04-11T06:45:51.977Z,396.00
2018-04-11T06:46:51.997Z,400.00
2018-04-11T06:47:52.021Z,400.00
2018-04-11T06:48:52.030Z,400.00
2018-04-11T06:49:52.050Z,400.00
2018-04-11T06:50:52.072Z,400.00
2018-04-11T06:51:52.092Z,404.00
2018-04-11T06:52:52.110Z,404.00
2018-04-11T06:53:52.128Z,404.00
2018-04-11T06:54:52.141Z,404.00
2018-04-11T06:55:52.165Z,404.00
2018-04-11T06:56:52.186Z,408.00
2018-04-11T06:57:52.197Z,404.00
2018-04-11T06:58:52.227Z,408.00
2018-04-11T06:59:52.241Z,408.00
2018-04-11T07:00:52.264Z,408.00
2018-04-11T07:01:52.272Z,412.00
2018-04-11T07:02:52.293Z,412.00
2018-04-11T07:03:52.317Z,416.00
2018-04-11T07:04:52.334Z,412.00
2018-04-11T07:05:52.355Z,412.00
2018-04-11T07:06:52.373Z,412.00
2018-04-11T07:07:52.444Z,416.00
2018-04-11T07:08:52.411Z,416.00
2018-04-11T07:09:52.426Z,416.00
2018-04-11T07:10:52.454Z,420.00
2018-04-11T07:11:52.463Z,420.00
2018-04-11T07:12:52.479Z,420.00
2018-04-11T07:13:52.508Z,424.00
2018-04-11T07:14:52.523Z,420.00
2018-04-11T07:15:52.539Z,420.00
2018-04-11T07:16:52.568Z,424.00
2018-04-11T07:17:52.583Z,424.00
2018-04-11T07:18:52.596Z,424.00
2018-04-11T07:19:52.635Z,428.00
2018-04-11T07:20:52.633Z,428.00
2018-04-11T07:21:52.665Z,428.00
2018-04-11T07:22:52.680Z,428.00
2018-04-11T07:23:52.695Z,428.00
2018-04-11T07:24:52.712Z,432.00
2018-04-11T07:25:52.739Z,432.00
2018-04-11T07:26:52.758Z,432.00
2018-04-11T07:27:52.769Z,432.00
2018-04-11T07:28:52.788Z,436.00
2018-04-11T07:29:52.808Z,436.00
2018-04-11T07:30:52.829Z,436.00
2018-04-11T07:31:52.851Z,436.00
2018-04-11T07:32:52.871Z,436.00
2018-04-11T07:33:52.886Z,436.00
2018-04-11T07:34:52.904Z,440.00
2018-04-11T07:35:52.922Z,440.00
2018-04-11T07:36:52.941Z,436.00
2018-04-11T07:37:52.962Z,440.00
2018-04-11T07:38:52.981Z,440.00
2018-04-11T07:39:53.001Z,440.00
2018-04-11T07:40:53.020Z,440.00
2018-04-11T07:41:53.035Z,440.00
2018-04-11T07:42:53.059Z,440.00
2018-04-11T07:43:53.081Z,444.00
2018-04-11T07:44:53.099Z,440.00
2018-04-11T07:45:53.114Z,440.00
2018-04-11T07:46:53.140Z,444.00
2018-04-11T07:47:53.161Z,444.00
2018-04-11T07:48:53.180Z,444.00
2018-04-11T07:49:53.196Z,444.00
2018-04-11T07:50:53.217Z,444.00
2018-04-11T07:51:53.236Z,444.00
2018-04-11T07:52:53.259Z,444.00
2018-04-11T07:53:53.276Z,448.00
2018-04-11T07:54:53.293Z,444.00
2018-04-11T07:55:53.318Z,448.00
2018-04-11T07:56:53.338Z,448.00
2018-04-11T07:57:53.355Z,444.00
2018-04-11T07:58:53.380Z,448.00
2018-04-11T07:59:53.399Z,448.00
2018-04-11T08:00:53.417Z,448.00
2018-04-11T08:01:53.435Z,452.00
2018-04-11T08:02:53.521Z,448.00
2018-04-11T08:03:53.479Z,452.00
2018-04-11T08:04:53.496Z,448.00
2018-04-11T08:05:53.519Z,452.00
2018-04-11T08:06:53.536Z,448.00
2018-04-11T08:07:53.558Z,452.00
2018-04-11T08:08:53.573Z,452.00
2018-04-11T08:09:53.598Z,448.00
2018-04-11T08:10:53.614Z,452.00
2018-04-11T08:11:53.639Z,448.00
2018-04-11T08:12:53.652Z,452.00
2018-04-11T08:13:53.675Z,452.00
2018-04-11T08:14:53.706Z,452.00
2018-04-11T08:15:53.711Z,452.00
2018-04-11T08:16:53.736Z,452.00
2018-04-11T08:17:53.774Z,456.00
2018-04-11T08:18:53.806Z,456.00
2018-04-11T08:19:53.799Z,456.00
2018-04-11T08:20:53.820Z,452.00
2018-04-11T08:21:53.833Z,456.00
2018-04-11T08:22:53.850Z,456.00
2018-04-11T08:23:53.877Z,456.00
2018-04-11T08:24:53.897Z,456.00
2018-04-11T08:25:53.920Z,456.00
2018-04-11T08:26:53.957Z,452.00
2018-04-11T08:27:53.960Z,460.00
2018-04-11T08:28:53.986Z,456.00
2018-04-11T08:29:54.020Z,460.00
2018-04-11T08:30:54.017Z,456.00
2018-04-11T08:31:54.042Z,456.00
2018-04-11T08:32:54.061Z,460.00
2018-04-11T08:33:54.078Z,460.00
2018-04-11T08:34:54.103Z,460.00
2018-04-11T08:35:54.127Z,464.00
2018-04-11T08:36:54.140Z,460.00
2018-04-11T08:37:54.168Z,464.00
2018-04-11T08:38:54.188Z,464.00
2018-04-11T08:39:54.209Z,464.00
2018-04-11T08:40:54.219Z,464.00
2018-04-11T08:41:54.241Z,460.00
2018-04-11T08:42:54.266Z,464.00
2018-04-11T08:43:54.283Z,468.00
2018-04-11T08:44:54.312Z,464.00
2018-04-11T08:45:54.322Z,464.00
2018-04-11T08:46:54.341Z,468.00
2018-04-11T08:47:54.365Z,468.00
2018-04-11T08:48:54.387Z,468.00
2018-04-11T08:49:54.408Z,468.00
2018-04-11T08:50:54.424Z,468.00
2018-04-11T08:51:54.451Z,472.00
2018-04-11T08:52:54.465Z,472.00
2018-04-11T08:53:54.482Z,468.00
2018-04-11T08:54:54.508Z,472.00
2018-04-11T08:55:54.528Z,472.00
2018-04-11T08:56:54.552Z,472.00
2018-04-11T08:57:54.569Z,476.00
2018-04-11T08:58:54.590Z,472.00
2018-04-11T08:59:54.617Z,472.00
2018-04-11T09:00:54.630Z,476.00
2018-04-11T09:01:54.654Z,476.00
2018-04-11T09:02:54.678Z,476.00
2018-04-11T09:03:54.719Z,476.00
2018-04-11T09:04:54.715Z,476.00
2018-04-11T09:05:54.736Z,476.00
2018-04-11T09:06:54.785Z,476.00
2018-04-11T09:07:54.777Z,476.00
2018-04-11T09:08:54.793Z,476.00
2018-04-11T09:09:54.820Z,476.00
2018-04-11T09:10:54.837Z,476.00
2018-04-11T09:11:54.863Z,480.00
2018-04-11T09:12:54.881Z,480.00
2018-04-11T09:13:54.901Z,480.00
2018-04-11T09:14:54.920Z,480.00
2018-04-11T09:15:54.949Z,480.00
2018-04-11T09:16:54.968Z,480.00
2018-04-11T09:17:54.985Z,480.00
2018-04-11T09:18:55.006Z,484.00
2018-04-11T09:19:55.026Z,484.00
2018-04-11T09:20:55.047Z,484.00
2018-04-11T09:21:55.070Z,488.00
2018-04-11T09:22:55.092Z,488.00
2018-04-11T09:23:55.110Z,488.00
2018-04-11T09:24:55.131Z,488.00
2018-04-11T09:25:55.154Z,488.00
2018-04-11T09:26:55.221Z,484.00
2018-04-11T09:27:55.196Z,488.00
2018-04-11T09:28:55.218Z,488.00
2018-04-11T09:29:55.234Z,488.00
2018-04-11T09:30:55.256Z,488.00
2018-04-11T09:31:55.334Z,488.00
2018-04-11T09:32:55.327Z,488.00
2018-04-11T09:33:55.325Z,488.00
2018-04-11T09:34:55.342Z,488.00
2018-04-11T09:35:55.361Z,492.00
2018-04-11T09:36:55.379Z,492.00
2018-04-11T09:37:55.412Z,492.00
2018-04-11T09:38:55.421Z,492.00
2018-04-11T09:39:55.472Z,492.00
2018-04-11T09:40:55.471Z,496.00
2018-04-11T09:41:55.518Z,496.00
2018-04-11T09:42:55.514Z,496.00
2018-04-11T09:43:55.534Z,496.00
2018-04-11T09:44:55.559Z,496.00
2018-04-11T09:45:55.581Z,496.00
2018-04-11T09:46:55.599Z,496.00
2018-04-11T09:47:55.615Z,500.00
2018-04-11T09:48:55.645Z,500.00
2018-04-11T09:49:55.668Z,504.00
2018-04-11T09:50:55.685Z,504.00
2018-04-11T09:51:55.734Z,504.00
2018-04-11T09:52:55.751Z,500.00
2018-04-11T09:53:55.745Z,508.00
2018-04-11T09:54:55.766Z,504.00
2018-04-11T09:55:55.799Z,508.00
2018-04-11T09:56:55.810Z,508.00
2018-04-11T09:57:55.833Z,508.00
2018-04-11T09:58:55.856Z,508.00
2018-04-11T09:59:55.877Z,508.00
2018-04-11T10:00:55.906Z,512.00
2018-04-11T10:01:55.917Z,512.00
2018-04-11T10:02:55.941Z,512.00
2018-04-11T10:03:55.968Z,512.00
2018-04-11T10:04:55.995Z,512.00
2018-04-11T10:05:56.007Z,512.00
2018-04-11T10:06:56.080Z,512.00
2018-04-11T10:07:56.064Z,512.00
2018-04-11T10:08:56.075Z,512.00
2018-04-11T10:09:56.098Z,512.00
2018-04-11T10:10:56.112Z,516.00
2018-04-11T10:11:56.130Z,512.00
2018-04-11T10:12:56.161Z,516.00
2018-04-11T10:13:56.191Z,516.00
2018-04-11T10:14:56.222Z,516.00
2018-04-11T10:15:56.224Z,516.00
2018-04-11T10:16:56.252Z,516.00
2018-04-11T10:17:56.277Z,520.00
2018-04-11T10:18:56.295Z,520.00
2018-04-11T10:19:56.305Z,520.00
2018-04-11T10:20:56.338Z,520.00
2018-04-11T10:21:56.354Z,524.00
2018-04-11T10:22:56.374Z,524.00
2018-04-11T10:23:56.407Z,520.00
2018-04-11T10:24:56.428Z,524.00
2018-04-11T10:25:56.444Z,524.00
2018-04-11T10:26:56.464Z,524.00
2018-04-11T10:27:56.489Z,524.00
2018-04-11T10:28:56.502Z,524.00
2018-04-11T10:29:56.538Z,528.00
2018-04-11T10:30:56.557Z,524.00
2018-04-11T10:31:56.584Z,528.00
2018-04-11T10:32:56.599Z,528.00
2018-04-11T10:33:56.613Z,528.00
2018-04-11T10:34:56.642Z,528.00
2018-04-11T10:35:56.656Z,532.00
2018-04-11T10:36:56.719Z,532.00
2018-04-11T10:37:56.710Z,532.00
2018-04-11T10:38:56.726Z,536.00
2018-04-11T10:39:56.745Z,532.00
2018-04-11T10:40:56.778Z,536.00
2018-04-11T10:41:56.815Z,532.00
2018-04-11T10:42:56.813Z,536.00
2018-04-11T10:43:56.839Z,536.00
2018-04-11T10:44:56.874Z,536.00
2018-04-11T10:45:56.887Z,536.00
2018-04-11T10:46:56.901Z,540.00
2018-04-11T10:47:56.937Z,540.00
2018-04-11T10:48:56.949Z,536.00
2018-04-11T10:49:56.972Z,536.00
2018-04-11T10:50:57.000Z,544.00
2018-04-11T10:51:57.013Z,540.00
2018-04-11T10:52:57.037Z,540.00
2018-04-11T10:53:57.061Z,540.00
2018-04-11T10:54:57.089Z,540.00
2018-04-11T10:55:57.124Z,540.00
2018-04-11T10:56:57.154Z,540.00
2018-04-11T10:57:57.152Z,540.00
2018-04-11T10:58:57.169Z,536.00
2018-04-11T10:59:57.197Z,544.00
2018-04-11T11:00:57.221Z,544.00
2018-04-11T11:01:57.240Z,544.00
2018-04-11T11:02:57.265Z,544.00
2018-04-11T11:03:57.284Z,540.00
2018-04-11T11:04:57.308Z,544.00
2018-04-11T11:05:57.327Z,544.00
2018-04-11T11:06:57.344Z,544.00
2018-04-11T11:07:57.374Z,544.00
2018-04-11T11:08:57.395Z,544.00
2018-04-11T11:09:57.415Z,544.00
2018-04-11T11:10:57.455Z,548.00
2018-04-11T11:11:57.463Z,548.00
2018-04-11T11:12:57.567Z,548.00
2018-04-11T11:13:57.511Z,552.00
2018-04-11T11:14:57.536Z,552.00
2018-04-11T11:15:57.556Z,560.00
2018-04-11T11:16:57.578Z,560.00
2018-04-11T11:17:57.609Z,564.00
2018-04-11T11:18:57.621Z,564.00
2018-04-11T11:19:57.642Z,572.00
2018-04-11T11:20:57.666Z,584.00
2018-04-11T11:21:57.687Z,588.00
2018-04-11T11:22:57.712Z,596.00
2018-04-11T11:23:57.738Z,612.00
2018-04-11T11:24:57.761Z,624.00
2018-04-11T11:25:57.784Z,636.00
2018-04-11T11:26:57.803Z,652.00
2018-04-11T11:27:57.828Z,668.00
2018-04-11T11:28:57.850Z,684.00
2018-04-11T11:29:57.875Z,700.00
2018-04-11T11:30:57.978Z,716.00
2018-04-11T11:31:57.919Z,736.00
2018-04-11T11:32:57.940Z,756.00
2018-04-11T11:33:57.966Z,776.00
2018-04-11T11:34:57.983Z,788.00
2018-04-11T11:35:58.001Z,812.00
2018-04-11T11:36:58.032Z,836.00
2018-04-11T11:37:58.052Z,856.00
2018-04-11T11:38:58.073Z,876.00
2018-04-11T11:39:58.095Z,892.00
2018-04-11T11:40:58.126Z,908.00
2018-04-11T11:41:58.148Z,916.00
2018-04-11T11:42:58.167Z,920.00
2018-04-11T11:43:58.186Z,924.00
2018-04-11T11:44:58.215Z,932.00
2018-04-11T11:45:58.268Z,932.00
2018-04-11T11:46:58.258Z,944.00
2018-04-11T11:47:58.289Z,952.00
2018-04-11T11:48:58.309Z,952.00
2018-04-11T11:49:58.330Z,948.00
2018-04-11T11:50:58.355Z,968.00
2018-04-11T11:51:58.384Z,960.00
2018-04-11T11:52:58.399Z,976.00
2018-04-11T11:53:58.422Z,976.00
2018-04-11T11:54:58.451Z,976.00
2018-04-11T11:55:58.467Z,992.00
2018-04-11T11:56:58.500Z,992.00
2018-04-11T11:57:58.530Z,996.00
2018-04-11T11:58:58.554Z,1016.00
2018-04-11T11:59:58.564Z,1012.00
2018-04-11T12:00:58.590Z,1020.00
2018-04-11T12:01:58.657Z,1024.00
2018-04-11T12:02:58.685Z,1036.00
2018-04-11T12:03:58.659Z,1064.00
2018-04-11T12:04:58.702Z,1064.00
2018-04-11T12:05:58.717Z,1068.00
2018-04-11T12:06:58.730Z,1080.00
2018-04-11T12:07:58.815Z,1088.00
2018-04-11T12:08:58.783Z,1104.00
2018-04-11T12:09:58.807Z,1112.00
2018-04-11T12:10:58.827Z,1112.00
2018-04-11T12:11:58.868Z,1136.00
2018-04-11T12:12:58.875Z,1132.00
2018-04-11T12:13:58.903Z,1140.00
2018-04-11T12:14:58.920Z,1160.00
2018-04-11T12:15:58.952Z,1172.00
2018-04-11T12:16:58.973Z,1184.00
2018-04-11T12:17:59.000Z,1200.00
2018-04-11T12:18:59.023Z,1216.00
2018-04-11T12:19:59.057Z,1220.00
2018-04-11T12:20:59.066Z,1244.00
2018-04-11T12:21:59.093Z,1256.00
2018-04-11T12:22:59.119Z,1288.00
2018-04-11T12:23:59.144Z,1320.00
2018-04-11T12:24:59.164Z,1344.00
2018-04-11T12:25:59.196Z,1376.00
2018-04-11T12:26:59.212Z,1404.00
2018-04-11T12:27:59.246Z,1440.00
2018-04-11T12:28:59.269Z,1480.00
2018-04-11T12:29:59.289Z,1516.00
2018-04-11T12:30:59.314Z,1568.00
2018-04-11T12:31:59.378Z,1628.00
2018-04-11T12:32:59.369Z,1696.00
2018-04-11T12:33:59.389Z,1756.00
2018-04-11T12:34:59.411Z,1848.00
2018-04-11T12:35:59.437Z,1948.00
2018-04-11T12:36:59.468Z,2056.00
2018-04-11T12:37:59.489Z,2176.00
2018-04-11T12:38:59.597Z,2328.00
2018-04-11T12:39:59.538Z,2488.00
2018-04-11T12:40:59.572Z,2668.00
2018-04-11T12:41:59.587Z,2868.00
2018-04-11T12:42:59.614Z,3080.00
2018-04-11T12:43:59.639Z,3268.00
2018-04-11T12:44:59.664Z,3468.00
2018-04-11T12:45:59.701Z,3660.00